Time;durP1;ratioP1;P1;durP2;ratioP2;P2;SDS_P1;SDS_P2;PMS_P1;PMS_P2;Temp;Humidity;BMP_temperature;BMP_pressure;BME280_temperature;BME280_humidity;BME280_pressure;Samples;Min_cycle;Max_cycle;Signal;HPM_P1;HPM_P2
2022/02/12 08:58:22;;;;;;;14.03;12.57;;;7.10;97.40;;;;;;4216287;23;20506;-87
2022/02/12 09:00:54;;;;;;;15.53;13.93;;;8.20;95.70;;;;;;4972372;28;20456;-87
2022/02/12 09:03:24;;;;;;;15.30;13.60;;;8.40;94.40;;;;;;4973985;28;20428;-85
2022/02/12 09:05:55;;;;;;;14.77;11.70;;;7.90;93.20;;;;;;4972448;28;20460;-84
2022/02/12 09:08:22;;;;;;;14.40;12.90;;;7.50;93.80;;;;;;4964846;29;20485;-85
2022/02/12 09:10:54;;;;;;;14.73;13.00;;;7.10;94.10;;;;;;4962942;29;20480;-85
2022/02/12 09:13:29;;;;;;;13.40;12.00;;;6.70;94.70;;;;;;4964041;29;20555;-87
2022/02/12 09:16:00;;;;;;;17.80;14.20;;;6.60;95.70;;;;;;4957856;29;20453;-85
2022/02/12 09:18:29;;;;;;;16.90;12.40;;;6.50;96.20;;;;;;4966383;28;20529;-86
2022/02/12 09:21:02;;;;;;;15.10;12.20;;;6.70;96.00;;;;;;4963803;29;20461;-84
2022/02/12 09:23:31;;;;;;;16.43;12.67;;;7.40;95.90;;;;;;4966043;29;20437;-86
2022/02/12 09:26:11;;;;;;;15.70;13.60;;;7.70;94.70;;;;;;4962663;29;20491;-86
2022/02/12 09:28:42;;;;;;;16.23;13.33;;;6.60;94.80;;;;;;4955900;29;20480;-85
2022/02/12 09:31:09;;;;;;;15.60;13.23;;;5.80;96.20;;;;;;4954035;29;20478;-86
2022/02/12 09:33:37;;;;;;;20.80;15.47;;;5.70;97.50;;;;;;4958451;29;20459;-86
2022/02/12 09:36:07;;;;;;;19.77;14.27;;;5.90;98.20;;;;;;4958088;29;20843;-86
2022/02/12 09:38:34;;;;;;;16.20;13.27;;;5.90;98.10;;;;;;4955938;29;20447;-86
2022/02/12 09:41:09;;;;;;;16.97;12.90;;;6.50;98.30;;;;;;4954160;29;20481;-85
2022/02/12 09:43:36;;;;;;;16.47;13.93;;;7.70;97.40;;;;;;4957075;29;20444;-86
2022/02/12 09:46:25;;;;;;;16.00;11.93;;;9.10;95.50;;;;;;4956485;29;20453;-86
2022/02/12 09:48:58;;;;;;;14.67;12.30;;;9.10;93.20;;;;;;4956105;28;20475;-88
2022/02/12 09:51:30;;;;;;;15.10;12.27;;;9.20;92.20;;;;;;4956904;29;20485;-86
2022/02/12 09:54:03;;;;;;;16.83;13.83;;;9.10;92.20;;;;;;4954344;29;20449;-86
2022/02/12 09:56:35;;;;;;;16.93;13.03;;;9.20;91.50;;;;;;4954436;29;20464;-86
2022/02/12 09:59:04;;;;;;;16.60;12.77;;;9.60;92.30;;;;;;4950549;29;20497;-87
2022/02/12 10:01:33;;;;;;;18.83;14.00;;;9.30;91.30;;;;;;4951908;29;20471;-86
2022/02/12 10:04:16;;;;;;;18.03;14.27;;;10.00;91.20;;;;;;4968530;29;20497;-85
2022/02/12 10:07:00;;;;;;;16.77;12.77;;;10.10;89.60;;;;;;4964905;29;20442;-86
2022/02/12 10:09:31;;;;;;;15.83;13.30;;;10.20;89.50;;;;;;4959898;29;20476;-87
2022/02/12 10:12:06;;;;;;;13.43;11.27;;;11.60;87.30;;;;;;4958274;29;20453;-87
2022/02/12 10:14:41;;;;;;;14.20;12.83;;;12.70;83.10;;;;;;4954675;29;20466;-87
2022/02/12 10:17:38;;;;;;;16.20;12.40;;;12.50;78.20;;;;;;4953435;29;20463;-86
2022/02/12 10:20:09;;;;;;;11.67;10.57;;;11.90;78.70;;;;;;4947062;28;20479;-87
2022/02/12 10:22:45;;;;;;;12.70;11.07;;;12.50;79.60;;;;;;4957500;28;20439;-86
2022/02/12 10:25:16;;;;;;;15.40;12.00;;;13.00;76.20;;;;;;4956149;29;20455;-87
2022/02/12 10:27:56;;;;;;;;;;;;;;;;;;;;;
2022/02/12 10:30:33;;;;;;;12.93;10.93;;;14.20;74.50;;;;;;4959481;29;20476;-87
2022/02/12 10:33:04;;;;;;;13.73;11.20;;;14.80;70.80;;;;;;4954702;29;20446;-88
2022/02/12 10:35:40;;;;;;;13.87;10.80;;;15.90;67.50;;;;;;4957619;29;20446;-89
2022/02/12 10:38:15;;;;;;;11.67;10.27;;;16.20;66.50;;;;;;4966907;28;20459;-86
2022/02/12 10:41:20;;;;;;;14.37;9.37;;;17.40;64.30;;;;;;4958640;29;20464;-86
2022/02/12 10:44:02;;;;;;;11.50;9.40;;;17.70;60.00;;;;;;4972010;28;20442;-85
2022/02/12 10:47:02;;;;;;;12.97;9.50;;;18.80;58.70;;;;;;4982941;28;20439;-85
2022/02/12 10:49:46;;;;;;;10.47;9.53;;;19.70;56.90;;;;;;4977249;28;20466;-85
2022/02/12 10:52:15;;;;;;;12.00;9.63;;;20.50;55.00;;;;;;4975829;28;20475;-84
2022/02/12 10:55:08;;;;;;;10.40;7.97;;;21.40;53.00;;;;;;4976117;28;20500;-87
2022/02/12 10:58:06;;;;;;;12.90;9.37;;;20.80;51.20;;;;;;4878865;29;20473;-86
2022/02/12 11:00:56;;;;;;;;;;;;;;;;;;;;;
2022/02/12 11:03:45;;;;;;;17.53;9.37;;;18.30;56.00;;;;;;4962446;29;20473;-86
2022/02/12 11:06:39;;;;;;;10.77;7.70;;;19.30;53.20;;;;;;4961476;29;20449;-88
2022/02/12 11:09:17;;;;;;;14.13;8.73;;;17.80;53.10;;;;;;4953059;28;20483;-86
2022/02/12 11:14:59;;;;;;;11.43;8.53;;;20.90;51.40;;;;;;4961501;29;20463;-88
2022/02/12 11:17:34;;;;;;;11.20;9.53;;;21.30;49.40;;;;;;4959635;29;20461;-88
2022/02/12 11:20:11;;;;;;;11.20;9.40;;;19.40;48.70;;;;;;4961112;28;20460;-88
2022/02/12 11:23:24;;;;;;;;;;;;;;;;;;;;;
2022/02/12 11:25:55;;;;;;;11.93;8.90;;;20.60;50.10;;;;;;4917108;28;20444;-86
2022/02/12 11:28:37;;;;;;;9.77;8.87;;;20.20;48.10;;;;;;4980900;28;20459;-85
2022/02/12 11:37:57;;;;;;;;;;;;;;;;;;;;;
2022/02/12 11:40:30;;;;;;;10.03;8.00;;;17.80;50.50;;;;;;4958316;28;20496;-85
2022/02/12 11:42:58;;;;;;;12.00;8.10;;;18.10;49.30;;;;;;4971533;28;20449;-87
2022/02/12 11:45:35;;;;;;;9.10;7.27;;;18.00;48.60;;;;;;4954636;29;20532;-86
2022/02/12 11:48:16;;;;;;;7.60;5.77;;;18.30;49.60;;;;;;4952268;29;20445;-88
2022/02/12 11:51:25;;;;;;;;;;;;;;;;;;;;;
2022/02/12 11:54:42;;;;;;;8.63;4.53;;;19.50;45.30;;;;;;4958311;29;20456;-86
2022/02/12 11:57:51;;;;;;;6.47;4.63;;;18.50;45.40;;;;;;4946021;29;20987;-86
2022/02/12 12:00:40;;;;;;;6.10;3.90;;;18.30;44.90;;;;;;4945087;29;20473;-86
2022/02/12 12:03:22;;;;;;;4.97;3.80;;;16.20;45.30;;;;;;4958806;29;20452;-90
2022/02/12 12:12:24;;;;;;;5.27;4.07;;;15.10;47.60;;;;;;4875327;29;20494;-86
2022/02/12 12:14:57;;;;;;;4.50;4.10;;;15.40;48.10;;;;;;4891709;29;20460;-86
2022/02/12 12:17:27;;;;;;;4.70;4.20;;;15.20;47.70;;;;;;4953386;29;20896;-87
2022/02/12 12:19:56;;;;;;;5.90;4.33;;;14.80;48.70;;;;;;4957285;29;20490;-86
2022/02/12 12:22:45;;;;;;;;;;;;;;;;;;;;;
2022/02/12 12:25:11;;;;;;;5.67;4.27;;;14.80;48.80;;;;;;4965561;29;20485;-86
2022/02/12 12:27:38;;;;;;;6.60;4.07;;;15.30;48.60;;;;;;4975068;28;20858;-87
2022/02/12 12:33:17;;;;;;;;;;;;;;;;;;;;;
2022/02/12 12:36:24;;;;;;;5.57;4.50;;;14.90;47.50;;;;;;4976742;28;20439;-87
2022/02/12 12:38:54;;;;;;;4.80;4.20;;;14.80;48.20;;;;;;4907864;29;20485;-84
2022/02/12 12:41:25;;;;;;;5.20;3.43;;;15.20;48.50;;;;;;4974345;29;20454;-84
2022/02/12 12:44:08;;;;;;;4.70;3.20;;;15.00;47.30;;;;;;4965314;28;20526;-84
2022/02/12 12:46:37;;;;;;;3.93;3.33;;;15.30;46.30;;;;;;4965507;29;20482;-85
2022/02/12 12:49:05;;;;;;;4.93;2.90;;;15.20;45.30;;;;;;4962482;29;20486;-86
2022/02/12 12:51:32;;;;;;;4.93;3.03;;;14.00;44.80;;;;;;4957065;29;20509;-84
2022/02/12 12:54:00;;;;;;;2.73;2.53;;;13.40;46.20;;;;;;4963184;28;20513;-85
2022/02/12 12:56:28;;;;;;;5.33;2.83;;;13.00;47.40;;;;;;4954497;29;20939;-87
2022/02/12 12:59:06;;;;;;;4.17;2.87;;;12.20;48.40;;;;;;4974649;28;20468;-83
2022/02/12 13:01:33;;;;;;;3.83;2.90;;;12.00;48.30;;;;;;4963672;29;20442;-85
2022/02/12 13:04:00;;;;;;;3.40;2.80;;;12.40;49.30;;;;;;4974623;28;20461;-84
2022/02/12 13:06:27;;;;;;;3.00;2.47;;;13.10;48.20;;;;;;4962118;29;20449;-85
2022/02/12 13:08:56;;;;;;;4.37;2.97;;;12.80;46.00;;;;;;4948940;28;20475;-85
2022/02/12 13:11:32;;;;;;;2.83;2.27;;;12.50;46.50;;;;;;4949993;29;20484;-86
2022/02/12 13:14:11;;;;;;;4.03;3.10;;;12.30;47.20;;;;;;4956030;29;20455;-87
2022/02/12 13:20:14;;;;;;;;;;;;;;;;;;;;;
2022/02/12 13:22:54;;;;;;;3.00;2.80;;;11.60;49.10;;;;;;4956120;29;20544;-87
2022/02/12 13:25:30;;;;;;;5.30;3.20;;;11.30;48.60;;;;;;4958947;29;20493;-90
2022/02/12 13:28:37;;;;;;;;;;;;;;;;;;;;;
2022/02/12 13:31:09;;;;;;;4.33;2.97;;;12.10;48.60;;;;;;4910528;28;20504;-87
2022/02/12 13:33:39;;;;;;;5.07;3.57;;;12.10;47.90;;;;;;4954811;29;20452;-85
2022/02/12 13:36:07;;;;;;;3.87;3.03;;;12.60;48.60;;;;;;4953410;29;20477;-85
2022/02/12 13:38:34;;;;;;;5.73;3.43;;;13.20;47.50;;;;;;4952301;29;20459;-86
2022/02/12 13:41:01;;;;;;;4.90;3.13;;;13.20;46.60;;;;;;4967781;29;20464;-86
2022/02/12 13:43:29;;;;;;;3.73;2.50;;;13.20;46.00;;;;;;4958632;29;20459;-85
2022/02/12 13:45:59;;;;;;;3.80;3.00;;;14.10;46.80;;;;;;4964745;29;20449;-86
2022/02/12 13:48:40;;;;;;;5.33;3.90;;;14.00;45.30;;;;;;4963402;29;20467;-86
2022/02/12 13:51:09;;;;;;;6.30;3.30;;;13.90;45.50;;;;;;4957133;29;21053;-86
2022/02/12 13:53:43;;;;;;;3.20;2.90;;;14.30;46.00;;;;;;4956236;29;20460;-82
2022/02/12 13:56:10;;;;;;;4.23;3.20;;;13.70;45.30;;;;;;4951164;29;20450;-85
2022/02/12 13:58:37;;;;;;;4.93;3.00;;;13.90;45.90;;;;;;4945450;29;20449;-85
2022/02/12 14:01:04;;;;;;;4.13;3.77;;;13.80;46.20;;;;;;4949182;29;20480;-85
2022/02/12 14:03:36;;;;;;;5.77;3.83;;;13.50;46.40;;;;;;4954901;29;20452;-84
2022/02/12 14:06:02;;;;;;;4.50;3.73;;;13.30;47.00;;;;;;4952340;29;20457;-84
2022/02/12 14:08:29;;;;;;;3.73;3.40;;;12.90;48.00;;;;;;4950000;29;20857;-85
2022/02/12 14:10:56;;;;;;;19.07;5.57;;;12.90;49.00;;;;;;4954040;29;20464;-83
2022/02/12 14:13:23;;;;;;;5.90;3.97;;;12.20;48.90;;;;;;4947619;29;21236;-91
2022/02/12 14:15:50;;;;;;;11.43;5.30;;;12.20;50.50;;;;;;4950836;29;20450;-82
2022/02/12 14:18:18;;;;;;;7.80;4.57;;;11.70;49.70;;;;;;4956789;28;20517;-85
2022/02/12 14:20:46;;;;;;;6.93;4.70;;;11.60;50.40;;;;;;4953780;29;20478;-85
2022/02/12 14:23:13;;;;;;;4.70;4.20;;;12.00;52.40;;;;;;4953866;29;20457;-83
2022/02/12 14:25:39;;;;;;;5.83;5.00;;;12.10;51.70;;;;;;4966367;29;20441;-84
2022/02/12 14:28:06;;;;;;;6.47;4.97;;;11.80;51.50;;;;;;4969486;28;20453;-85
2022/02/12 14:30:35;;;;;;;7.43;5.10;;;11.60;51.00;;;;;;4960541;28;20469;-84
2022/02/12 14:33:01;;;;;;;5.43;4.97;;;11.10;51.70;;;;;;4971472;29;20481;-84
2022/02/12 14:35:28;;;;;;;4.50;4.10;;;11.20;52.00;;;;;;4961252;29;20448;-83
2022/02/12 14:37:57;;;;;;;5.73;4.47;;;11.00;52.40;;;;;;4954661;29;20447;-86
2022/02/12 14:40:24;;;;;;;6.80;5.07;;;11.00;52.40;;;;;;4955795;29;21141;-85
2022/02/12 14:42:53;;;;;;;6.33;5.17;;;10.90;52.50;;;;;;4951752;29;20483;-86
2022/02/12 14:45:20;;;;;;;5.20;4.63;;;11.30;52.50;;;;;;4949744;29;20446;-85
2022/02/12 18:06:39;;;;;;;;;;;;;;;;;;;;;
2022/02/12 18:13:40;;;;;;;;;;;;;;;;;;;;;
2022/02/12 18:20:10;;;;;;;;;;;;;;;;;;;;;
2022/02/12 18:39:17;;;;;;;;;;;;;;;;;;;;;
2022/02/12 18:42:16;;;;;;;10.83;9.10;;;5.20;81.80;;;;;;4854179;29;20593;-85
2022/02/12 18:49:02;;;;;;;;;;;;;;;;;;;;;
2022/02/12 19:43:00;;;;;;;;;;;;;;;;;;;;;
2022/02/12 19:46:16;;;;;;;;;;;;;;;;;;;;;
2022/02/12 19:55:14;;;;;;;16.70;12.10;;;4.10;90.40;;;;;;4996238;28;20483;-88
2022/02/12 19:58:14;;;;;;;18.00;12.53;;;3.80;90.80;;;;;;4993371;28;20459;-87
2022/02/12 20:03:27;;;;;;;15.50;12.30;;;3.70;91.50;;;;;;4995169;28;20516;-88
2022/02/12 20:05:54;;;;;;;17.07;12.10;;;3.60;91.80;;;;;;5010121;28;20950;-88
2022/02/12 20:08:22;;;;;;;26.60;13.10;;;3.50;92.00;;;;;;5004417;28;20480;-86
2022/02/12 20:10:51;;;;;;;19.13;12.87;;;3.40;92.20;;;;;;5016749;28;20484;-88
2022/02/12 20:13:20;;;;;;;17.73;12.30;;;3.50;92.50;;;;;;5001912;28;20545;-87
2022/02/12 20:16:15;;;;;;;17.57;12.10;;;3.50;92.50;;;;;;4993357;28;20451;-88
2022/02/12 20:32:44;;;;;;;21.77;15.50;;;3.40;93.90;;;;;;4861682;29;20459;-90
2022/02/12 20:35:11;;;;;;;15.33;12.83;;;3.30;94.00;;;;;;4971166;28;20456;-88
2022/02/12 20:37:38;;;;;;;16.43;13.40;;;3.30;93.90;;;;;;4993587;28;20442;-87
2022/02/12 20:46:52;;;;;;;15.23;11.63;;;3.20;94.70;;;;;;4723436;30;20569;-87
2022/02/12 20:55:57;;;;;;;18.50;12.47;;;3.00;94.90;;;;;;4812422;29;20444;-87
2022/02/12 20:58:25;;;;;;;17.10;12.17;;;3.00;94.90;;;;;;4960479;28;20450;-88
2022/02/12 21:03:39;;;;;;;17.30;13.00;;;3.00;95.00;;;;;;5002875;28;20471;-88
2022/02/12 21:28:04;;;;;;;;;;;;;;;;;;;;;
2022/02/12 21:30:48;;;;;;;22.37;15.50;;;2.90;95.40;;;;;;4985346;28;20496;-87
2022/02/12 21:34:04;;;;;;;21.33;14.30;;;2.80;95.60;;;;;;4963444;29;20478;-86
2022/02/12 21:43:16;;;;;;;;;;;;;;;;;;;;;
2022/02/12 21:49:21;;;;;;;;;;;;;;;;;;;;;
2022/02/12 21:52:10;;;;;;;;;;;;;;;;;;;;;
2022/02/12 21:55:20;;;;;;;18.63;12.32;;;2.30;97.00;;;;;;4939151;29;21087;-87
2022/02/12 21:58:41;;;;;;;;;;;;;;;;;;;;;
2022/02/12 22:07:47;;;;;;;;;;;;;;;;;;;;;
2022/02/12 22:10:30;;;;;;;19.30;14.35;;;2.30;97.80;;;;;;4839881;29;20240;-85
2022/02/12 22:13:13;;;;;;;;;;;;;;;;;;;;;
2022/02/12 22:23:01;;;;;;;;;;;;;;;;;;;;;
2022/02/12 22:26:12;;;;;;;;;;;;;;;;;;;;;
2022/02/12 22:39:51;;;;;;;;;;;;;;;;;;;;;
2022/02/12 22:56:19;;;;;;;;;;;;;;;;;;;;;
